sensor_id;sensor_type;location;lat;lon;timestamp;pressure;altitude;pressure_sealevel;temperature;humidity
62725;BME280;49026;52.600;4.694;2023-03-04T00:02:23;102757.69;;;5.38;72.55
62725;BME280;49026;52.600;4.694;2023-03-04T00:04:49;102747.22;;;5.35;72.76
62725;BME280;49026;52.600;4.694;2023-03-04T00:07:15;102767.19;;;5.36;72.63
62725;BME280;49026;52.600;4.694;2023-03-04T00:09:44;102750.66;;;5.34;72.56
62725;BME280;49026;52.600;4.694;2023-03-04T00:12:10;102759.38;;;5.36;72.78
62725;BME280;49026;52.600;4.694;2023-03-04T00:14:36;102766.34;;;5.37;72.53
62725;BME280;49026;52.600;4.694;2023-03-04T00:17:02;102763.75;;;5.37;72.13
62725;BME280;49026;52.600;4.694;2023-03-04T00:19:29;102760.28;;;5.36;72.26
62725;BME280;49026;52.600;4.694;2023-03-04T00:21:55;102761.97;;;5.34;72.66
62725;BME280;49026;52.600;4.694;2023-03-04T00:24:20;102750.72;;;5.37;72.58
62725;BME280;49026;52.600;4.694;2023-03-04T00:26:46;102754.19;;;5.37;72.54
62725;BME280;49026;52.600;4.694;2023-03-04T00:29:12;102755.06;;;5.36;72.05
62725;BME280;49026;52.600;4.694;2023-03-04T00:31:40;102762.91;;;5.38;72.65
62725;BME280;49026;52.600;4.694;2023-03-04T00:34:05;102755.91;;;5.35;72.73
62725;BME280;49026;52.600;4.694;2023-03-04T00:36:33;102755.91;;;5.37;72.52
62725;BME280;49026;52.600;4.694;2023-03-04T00:38:59;102761.97;;;5.36;72.87
62725;BME280;49026;52.600;4.694;2023-03-04T00:41:25;102765.47;;;5.35;72.11
62725;BME280;49026;52.600;4.694;2023-03-04T00:43:52;102763.75;;;5.37;72.35
62725;BME280;49026;52.600;4.694;2023-03-04T00:46:17;102768.97;;;5.37;72.46
62725;BME280;49026;52.600;4.694;2023-03-04T00:48:46;102769.81;;;5.36;72.68
62725;BME280;49026;52.600;4.694;2023-03-04T00:51:13;102767.19;;;5.36;72.31
62725;BME280;49026;52.600;4.694;2023-03-04T00:53:38;102756.78;;;5.36;72.83
62725;BME280;49026;52.600;4.694;2023-03-04T00:56:05;102770.69;;;5.36;72.61
62725;BME280;49026;52.600;4.694;2023-03-04T00:58:30;102764.53;;;5.33;72.36
62725;BME280;49026;52.600;4.694;2023-03-04T01:00:56;102768.06;;;5.35;72.61
62725;BME280;49026;52.600;4.694;2023-03-04T01:03:22;102767.16;;;5.33;72.85
62725;BME280;49026;52.600;4.694;2023-03-04T01:05:48;102763.69;;;5.32;72.35
62725;BME280;49026;52.600;4.694;2023-03-04T01:08:14;102763.69;;;5.32;72.20
62725;BME280;49026;52.600;4.694;2023-03-04T01:10:40;102771.47;;;5.31;72.41
62725;BME280;49026;52.600;4.694;2023-03-04T01:13:05;102764.53;;;5.30;72.10
62725;BME280;49026;52.600;4.694;2023-03-04T01:15:31;102763.66;;;5.31;71.98
62725;BME280;49026;52.600;4.694;2023-03-04T01:17:56;102767.97;;;5.29;72.43
62725;BME280;49026;52.600;4.694;2023-03-04T01:20:23;102763.63;;;5.29;72.06
62725;BME280;49026;52.600;4.694;2023-03-04T01:22:52;102759.31;;;5.28;72.45
62725;BME280;49026;52.600;4.694;2023-03-04T01:25:17;102765.34;;;5.27;72.31
62725;BME280;49026;52.600;4.694;2023-03-04T01:27:43;102761.00;;;5.28;72.42
62725;BME280;49026;52.600;4.694;2023-03-04T01:30:09;102761.00;;;5.25;72.39
62725;BME280;49026;52.600;4.694;2023-03-04T01:32:35;102759.22;;;5.24;72.66
62725;BME280;49026;52.600;4.694;2023-03-04T01:35:00;102748.81;;;5.24;72.71
62725;BME280;49026;52.600;4.694;2023-03-04T01:37:29;102743.59;;;5.24;72.53
62725;BME280;49026;52.600;4.694;2023-03-04T01:39:56;102743.59;;;5.24;72.36
62725;BME280;49026;52.600;4.694;2023-03-04T01:42:23;102741.84;;;5.23;72.18
62725;BME280;49026;52.600;4.694;2023-03-04T01:44:51;102736.63;;;5.24;72.28
62725;BME280;49026;52.600;4.694;2023-03-04T01:47:21;102736.63;;;5.24;72.19
62725;BME280;49026;52.600;4.694;2023-03-04T01:49:51;102742.72;;;5.23;72.22
62725;BME280;49026;52.600;4.694;2023-03-04T01:52:18;102738.38;;;5.24;72.50
62725;BME280;49026;52.600;4.694;2023-03-04T01:54:44;102736.63;;;5.23;72.60
62725;BME280;49026;52.600;4.694;2023-03-04T01:57:23;102734.00;;;5.23;72.37
62725;BME280;49026;52.600;4.694;2023-03-04T02:00:19;102733.13;;;5.20;72.56
62725;BME280;49026;52.600;4.694;2023-03-04T02:02:47;102731.41;;;5.23;72.19
62725;BME280;49026;52.600;4.694;2023-03-04T02:05:15;102720.06;;;5.17;72.71
62725;BME280;49026;52.600;4.694;2023-03-04T02:07:41;102724.41;;;5.18;72.38
62725;BME280;49026;52.600;4.694;2023-03-04T02:10:08;102714.84;;;5.17;72.54
62725;BME280;49026;52.600;4.694;2023-03-04T02:12:34;102712.28;;;5.20;72.74
62725;BME280;49026;52.600;4.694;2023-03-04T02:14:59;102702.72;;;5.21;72.68
62725;BME280;49026;52.600;4.694;2023-03-04T02:17:38;102707.09;;;5.22;72.56
62725;BME280;49026;52.600;4.694;2023-03-04T02:22:53;102707.09;;;5.24;72.57
62725;BME280;49026;52.600;4.694;2023-03-04T02:25:25;102702.72;;;5.23;72.92
62725;BME280;49026;52.600;4.694;2023-03-04T02:27:57;102701.03;;;5.25;72.55
62725;BME280;49026;52.600;4.694;2023-03-04T02:30:23;102698.44;;;5.25;72.48
62725;BME280;49026;52.600;4.694;2023-03-04T02:32:52;102693.22;;;5.25;72.73
62725;BME280;49026;52.600;4.694;2023-03-04T02:35:18;102692.34;;;5.24;72.69
62725;BME280;49026;52.600;4.694;2023-03-04T02:37:46;102686.22;;;5.20;72.78
62725;BME280;49026;52.600;4.694;2023-03-04T02:40:17;102688.81;;;5.20;72.89
62725;BME280;49026;52.600;4.694;2023-03-04T02:42:49;102684.47;;;5.19;72.68
62725;BME280;49026;52.600;4.694;2023-03-04T02:45:35;102679.22;;;5.16;72.91
62725;BME280;49026;52.600;4.694;2023-03-04T02:48:02;102679.22;;;5.16;72.60
62725;BME280;49026;52.600;4.694;2023-03-04T02:50:30;102680.94;;;5.13;73.17
62725;BME280;49026;52.600;4.694;2023-03-04T02:52:55;102677.44;;;5.12;72.98
62725;BME280;49026;52.600;4.694;2023-03-04T02:55:21;102678.31;;;5.11;72.54
62725;BME280;49026;52.600;4.694;2023-03-04T02:57:46;102674.78;;;5.11;72.85
62725;BME280;49026;52.600;4.694;2023-03-04T03:00:12;102679.16;;;5.10;72.98
62725;BME280;49026;52.600;4.694;2023-03-04T03:02:37;102666.09;;;5.09;72.82
62725;BME280;49026;52.600;4.694;2023-03-04T03:05:03;102669.56;;;5.09;72.68
62725;BME280;49026;52.600;4.694;2023-03-04T03:07:28;102666.97;;;5.11;72.96
62725;BME280;49026;52.600;4.694;2023-03-04T03:09:53;102665.28;;;5.11;72.74
62725;BME280;49026;52.600;4.694;2023-03-04T03:12:21;102656.56;;;5.12;72.92
62725;BME280;49026;52.600;4.694;2023-03-04T03:14:46;102660.94;;;5.12;72.39
62725;BME280;49026;52.600;4.694;2023-03-04T03:17:12;102659.19;;;5.12;72.59
62725;BME280;49026;52.600;4.694;2023-03-04T03:19:39;102660.06;;;5.13;72.54
62725;BME280;49026;52.600;4.694;2023-03-04T03:22:04;102660.06;;;5.11;72.89
62725;BME280;49026;52.600;4.694;2023-03-04T03:24:30;102660.91;;;5.10;72.80
62725;BME280;49026;52.600;4.694;2023-03-04T03:27:00;102655.72;;;5.12;73.02
62725;BME280;49026;52.600;4.694;2023-03-04T03:29:26;102655.72;;;5.13;72.71
62725;BME280;49026;52.600;4.694;2023-03-04T03:31:51;102645.31;;;5.15;72.81
62725;BME280;49026;52.600;4.694;2023-03-04T03:34:16;102646.19;;;5.15;72.72
62725;BME280;49026;52.600;4.694;2023-03-04T03:36:47;102649.69;;;5.17;73.24
62725;BME280;49026;52.600;4.694;2023-03-04T03:39:12;102642.78;;;5.19;72.86
62725;BME280;49026;52.600;4.694;2023-03-04T03:41:39;102651.47;;;5.22;72.79
62725;BME280;49026;52.600;4.694;2023-03-04T03:44:07;102647.16;;;5.24;72.37
62725;BME280;49026;52.600;4.694;2023-03-04T03:46:32;102644.59;;;5.27;72.77
62725;BME280;49026;52.600;4.694;2023-03-04T03:49:01;102644.59;;;5.27;72.55
62725;BME280;49026;52.600;4.694;2023-03-04T03:51:26;102649.81;;;5.28;72.83
62725;BME280;49026;52.600;4.694;2023-03-04T03:53:51;102644.63;;;5.30;72.66
62725;BME280;49026;52.600;4.694;2023-03-04T03:56:17;102655.06;;;5.30;72.46
62725;BME280;49026;52.600;4.694;2023-03-04T03:58:42;102650.69;;;5.29;72.74
62725;BME280;49026;52.600;4.694;2023-03-04T04:01:07;102644.59;;;5.27;72.67
62725;BME280;49026;52.600;4.694;2023-03-04T04:03:33;102650.63;;;5.24;72.88
62725;BME280;49026;52.600;4.694;2023-03-04T04:05:59;102650.59;;;5.23;72.73
62725;BME280;49026;52.600;4.694;2023-03-04T04:08:24;102643.66;;;5.22;73.37
62725;BME280;49026;52.600;4.694;2023-03-04T04:10:49;102635.84;;;5.22;72.68
62725;BME280;49026;52.600;4.694;2023-03-04T04:13:15;102641.03;;;5.20;73.02
62725;BME280;49026;52.600;4.694;2023-03-04T04:15:42;102632.34;;;5.19;73.05
62725;BME280;49026;52.600;4.694;2023-03-04T04:18:08;102642.75;;;5.18;73.26
62725;BME280;49026;52.600;4.694;2023-03-04T04:20:33;102639.28;;;5.19;73.10
62725;BME280;49026;52.600;4.694;2023-03-04T04:22:59;102639.28;;;5.20;73.22
62725;BME280;49026;52.600;4.694;2023-03-04T04:25:27;102649.72;;;5.20;73.26
62725;BME280;49026;52.600;4.694;2023-03-04T04:27:52;102642.78;;;5.19;72.98
62725;BME280;49026;52.600;4.694;2023-03-04T04:30:20;102635.81;;;5.20;73.03
62725;BME280;49026;52.600;4.694;2023-03-04T04:32:45;102639.34;;;5.24;72.72
62725;BME280;49026;52.600;4.694;2023-03-04T04:35:11;102637.63;;;5.26;72.92
62725;BME280;49026;52.600;4.694;2023-03-04T04:37:36;102643.72;;;5.26;72.87
62725;BME280;49026;52.600;4.694;2023-03-04T04:40:03;102644.59;;;5.27;72.66
62725;BME280;49026;52.600;4.694;2023-03-04T04:42:30;102639.38;;;5.27;72.72
62725;BME280;49026;52.600;4.694;2023-03-04T04:44:55;102640.25;;;5.27;72.76
62725;BME280;49026;52.600;4.694;2023-03-04T04:47:22;102639.38;;;5.27;72.79
62725;BME280;49026;52.600;4.694;2023-03-04T04:49:47;102639.38;;;5.27;73.14
62725;BME280;49026;52.600;4.694;2023-03-04T04:52:12;102638.50;;;5.28;73.10
62725;BME280;49026;52.600;4.694;2023-03-04T04:54:40;102644.59;;;5.28;72.97
62725;BME280;49026;52.600;4.694;2023-03-04T04:57:08;102629.78;;;5.26;73.06
62725;BME280;49026;52.600;4.694;2023-03-04T04:59:33;102635.91;;;5.26;72.64
62725;BME280;49026;52.600;4.694;2023-03-04T05:01:58;102637.63;;;5.27;72.98
62725;BME280;49026;52.600;4.694;2023-03-04T05:04:24;102641.13;;;5.29;73.01
62725;BME280;49026;52.600;4.694;2023-03-04T05:06:52;102633.31;;;5.31;73.16
62725;BME280;49026;52.600;4.694;2023-03-04T05:09:19;102643.75;;;5.31;73.04
62725;BME280;49026;52.600;4.694;2023-03-04T05:11:47;102639.41;;;5.30;72.78
62725;BME280;49026;52.600;4.694;2023-03-04T05:14:12;102639.41;;;5.30;72.94
62725;BME280;49026;52.600;4.694;2023-03-04T05:16:37;102642.91;;;5.32;72.79
62725;BME280;49026;52.600;4.694;2023-03-04T05:19:05;102636.81;;;5.33;72.63
62725;BME280;49026;52.600;4.694;2023-03-04T05:21:30;102642.03;;;5.33;72.79
62725;BME280;49026;52.600;4.694;2023-03-04T05:23:56;102633.31;;;5.29;73.09
62725;BME280;49026;52.600;4.694;2023-03-04T05:26:21;102638.50;;;5.28;72.68
62725;BME280;49026;52.600;4.694;2023-03-04T05:28:47;102637.56;;;5.23;72.77
62725;BME280;49026;52.600;4.694;2023-03-04T05:31:12;102636.66;;;5.19;72.97
62725;BME280;49026;52.600;4.694;2023-03-04T05:33:37;102642.75;;;5.16;72.71
62725;BME280;49026;52.600;4.694;2023-03-04T05:36:04;102643.53;;;5.12;72.69
62725;BME280;49026;52.600;4.694;2023-03-04T05:38:30;102640.06;;;5.10;72.52
62725;BME280;49026;52.600;4.694;2023-03-04T05:40:58;102647.84;;;5.07;72.88
62725;BME280;49026;52.600;4.694;2023-03-04T05:43:24;102649.56;;;5.05;72.58
62725;BME280;49026;52.600;4.694;2023-03-04T05:45:50;102639.94;;;5.03;72.52
62725;BME280;49026;52.600;4.694;2023-03-04T05:48:17;102639.03;;;4.99;73.09
62725;BME280;49026;52.600;4.694;2023-03-04T05:50:45;102637.28;;;4.96;73.13
62725;BME280;49026;52.600;4.694;2023-03-04T05:53:11;102641.59;;;4.91;72.93
62725;BME280;49026;52.600;4.694;2023-03-04T05:55:36;102646.75;;;4.88;72.78
62725;BME280;49026;52.600;4.694;2023-03-04T05:58:02;102634.59;;;4.89;73.19
62725;BME280;49026;52.600;4.694;2023-03-04T06:00:27;102641.59;;;4.91;73.45
62725;BME280;49026;52.600;4.694;2023-03-04T06:02:53;102641.59;;;4.93;72.90
62725;BME280;49026;52.600;4.694;2023-03-04T06:05:20;102640.69;;;4.91;72.63
62725;BME280;49026;52.600;4.694;2023-03-04T06:07:46;102637.09;;;4.79;72.72
62725;BME280;49026;52.600;4.694;2023-03-04T06:10:14;102636.03;;;4.65;72.89
62725;BME280;49026;52.600;4.694;2023-03-04T06:12:40;102643.69;;;4.53;72.87
62725;BME280;49026;52.600;4.694;2023-03-04T06:15:06;102629.69;;;4.44;72.67
62725;BME280;49026;52.600;4.694;2023-03-04T06:17:34;102638.28;;;4.40;73.12
62725;BME280;49026;52.600;4.694;2023-03-04T06:20:02;102627.03;;;4.41;73.03
62725;BME280;49026;52.600;4.694;2023-03-04T06:22:29;102628.78;;;4.44;72.95
62725;BME280;49026;52.600;4.694;2023-03-04T06:24:54;102627.13;;;4.49;72.96
62725;BME280;49026;52.600;4.694;2023-03-04T06:27:20;102626.31;;;4.52;72.98
62725;BME280;49026;52.600;4.694;2023-03-04T06:29:45;102632.41;;;4.55;72.95
62725;BME280;49026;52.600;4.694;2023-03-04T06:32:13;102634.25;;;4.64;72.78
62725;BME280;49026;52.600;4.694;2023-03-04T06:34:38;102632.69;;;4.75;73.03
62725;BME280;49026;52.600;4.694;2023-03-04T06:37:03;102644.06;;;4.83;72.95
62725;BME280;49026;52.600;4.694;2023-03-04T06:39:31;102649.38;;;4.90;73.25
62725;BME280;49026;52.600;4.694;2023-03-04T06:41:57;102644.91;;;4.81;73.30
62725;BME280;49026;52.600;4.694;2023-03-04T06:44:22;102643.94;;;4.74;73.38
62725;BME280;49026;52.600;4.694;2023-03-04T06:46:47;102642.16;;;4.70;73.36
62725;BME280;49026;52.600;4.694;2023-03-04T06:49:12;102644.78;;;4.70;73.72
62725;BME280;49026;52.600;4.694;2023-03-04T06:51:38;102643.97;;;4.73;73.46
62725;BME280;49026;52.600;4.694;2023-03-04T06:54:03;102644.88;;;4.76;73.84
62725;BME280;49026;52.600;4.694;2023-03-04T06:56:28;102648.38;;;4.80;73.71
62725;BME280;49026;52.600;4.694;2023-03-04T06:58:54;102648.47;;;4.86;73.70
62725;BME280;49026;52.600;4.694;2023-03-04T07:01:22;102654.63;;;4.93;73.73
62725;BME280;49026;52.600;4.694;2023-03-04T07:03:48;102654.69;;;4.99;73.75
62725;BME280;49026;52.600;4.694;2023-03-04T07:06:20;102666.91;;;5.03;73.93
62725;BME280;49026;52.600;4.694;2023-03-04T07:08:46;102668.59;;;5.01;74.13
62725;BME280;49026;52.600;4.694;2023-03-04T07:11:12;102661.59;;;4.95;74.42
62725;BME280;49026;52.600;4.694;2023-03-04T07:13:37;102665.91;;;4.93;74.09
62725;BME280;49026;52.600;4.694;2023-03-04T07:16:07;102665.97;;;4.96;74.39
62725;BME280;49026;52.600;4.694;2023-03-04T07:18:33;102669.44;;;4.98;75.19
62725;BME280;49026;52.600;4.694;2023-03-04T07:20:58;102672.00;;;4.94;75.29
62725;BME280;49026;52.600;4.694;2023-03-04T07:23:24;102671.94;;;4.91;75.42
62725;BME280;49026;52.600;4.694;2023-03-04T07:25:49;102666.72;;;4.91;75.72
62725;BME280;49026;52.600;4.694;2023-03-04T07:28:15;102669.34;;;4.91;76.19
62725;BME280;49026;52.600;4.694;2023-03-04T07:30:41;102665.06;;;4.93;76.31
62725;BME280;49026;52.600;4.694;2023-03-04T07:33:06;102676.38;;;4.96;76.99
62725;BME280;49026;52.600;4.694;2023-03-04T07:35:31;102679.03;;;5.03;76.59
62725;BME280;49026;52.600;4.694;2023-03-04T07:37:57;102676.56;;;5.12;76.35
62725;BME280;49026;52.600;4.694;2023-03-04T07:40:25;102680.97;;;5.17;77.25
62725;BME280;49026;52.600;4.694;2023-03-04T07:42:51;102678.38;;;5.19;77.21
62725;BME280;49026;52.600;4.694;2023-03-04T07:45:17;102681.88;;;5.19;77.48
62725;BME280;49026;52.600;4.694;2023-03-04T07:47:43;102674.91;;;5.18;78.00
62725;BME280;49026;52.600;4.694;2023-03-04T07:50:10;102681.84;;;5.18;77.75
62725;BME280;49026;52.600;4.694;2023-03-04T07:52:39;102685.38;;;5.22;77.83
62725;BME280;49026;52.600;4.694;2023-03-04T07:55:04;102684.56;;;5.27;78.05
62725;BME280;49026;52.600;4.694;2023-03-04T07:57:33;102676.81;;;5.33;78.22
62725;BME280;49026;52.600;4.694;2023-03-04T07:59:58;102689.03;;;5.39;78.33
62725;BME280;49026;52.600;4.694;2023-03-04T08:02:25;102689.13;;;5.47;78.49
62725;BME280;49026;52.600;4.694;2023-03-04T08:04:51;102690.03;;;5.50;78.77
62725;BME280;49026;52.600;4.694;2023-03-04T08:07:16;102683.19;;;5.60;78.62
62725;BME280;49026;52.600;4.694;2023-03-04T08:09:44;102679.84;;;5.80;78.72
62725;BME280;49026;52.600;4.694;2023-03-04T08:12:09;102688.66;;;5.91;79.12
62725;BME280;49026;52.600;4.694;2023-03-04T08:14:37;102684.41;;;5.96;79.77
62725;BME280;49026;52.600;4.694;2023-03-04T08:17:02;102679.19;;;5.98;79.94
62725;BME280;49026;52.600;4.694;2023-03-04T08:19:28;102681.81;;;5.98;79.80
62725;BME280;49026;52.600;4.694;2023-03-04T08:21:53;102678.34;;;5.99;79.18
62725;BME280;49026;52.600;4.694;2023-03-04T08:24:18;102687.13;;;6.08;79.03
62725;BME280;49026;52.600;4.694;2023-03-04T08:26:46;102682.81;;;6.12;79.15
62725;BME280;49026;52.600;4.694;2023-03-04T08:29:17;102674.09;;;6.11;79.54
62725;BME280;49026;52.600;4.694;2023-03-04T08:31:44;102680.22;;;6.17;79.51
62725;BME280;49026;52.600;4.694;2023-03-04T08:34:12;102673.31;;;6.26;79.07
62725;BME280;49026;52.600;4.694;2023-03-04T08:36:40;102683.78;;;6.29;79.89
62725;BME280;49026;52.600;4.694;2023-03-04T08:39:07;102689.09;;;6.39;79.15
62725;BME280;49026;52.600;4.694;2023-03-04T08:41:32;102687.34;;;6.41;80.35
62725;BME280;49026;52.600;4.694;2023-03-04T08:44:00;102690.84;;;6.38;80.10
62725;BME280;49026;52.600;4.694;2023-03-04T08:46:26;102691.75;;;6.43;80.53
62725;BME280;49026;52.600;4.694;2023-03-04T08:48:51;102686.56;;;6.53;80.60
62725;BME280;49026;52.600;4.694;2023-03-04T08:51:21;102687.50;;;6.62;80.52
62725;BME280;49026;52.600;4.694;2023-03-04T08:53:46;102685.81;;;6.72;80.58
62725;BME280;49026;52.600;4.694;2023-03-04T08:56:13;102678.00;;;6.80;80.80
62725;BME280;49026;52.600;4.694;2023-03-04T08:58:38;102680.63;;;6.83;80.35
62725;BME280;49026;52.600;4.694;2023-03-04T09:01:07;102680.66;;;6.86;81.00
62725;BME280;49026;52.600;4.694;2023-03-04T09:03:33;102676.28;;;6.86;80.54
62725;BME280;49026;52.600;4.694;2023-03-04T09:06:02;102685.94;;;7.00;81.43
62725;BME280;49026;52.600;4.694;2023-03-04T09:08:28;102684.22;;;7.07;80.53
62725;BME280;49026;52.600;4.694;2023-03-04T09:10:56;102680.72;;;7.03;81.13
62725;BME280;49026;52.600;4.694;2023-03-04T09:13:24;102677.22;;;6.98;81.11
62725;BME280;49026;52.600;4.694;2023-03-04T09:15:51;102675.47;;;6.92;81.33
62725;BME280;49026;52.600;4.694;2023-03-04T09:18:18;102678.03;;;6.86;80.71
62725;BME280;49026;52.600;4.694;2023-03-04T09:20:45;102673.66;;;6.80;81.11
62725;BME280;49026;52.600;4.694;2023-03-04T09:23:13;102673.59;;;6.70;80.74
62725;BME280;49026;52.600;4.694;2023-03-04T09:25:42;102678.78;;;6.60;80.89
62725;BME280;49026;52.600;4.694;2023-03-04T09:28:09;102679.59;;;6.55;80.51
62725;BME280;49026;52.600;4.694;2023-03-04T09:30:40;102675.28;;;6.61;81.35
62725;BME280;49026;52.600;4.694;2023-03-04T09:33:06;102673.69;;;6.88;80.48
62725;BME280;49026;52.600;4.694;2023-03-04T09:35:31;102689.53;;;7.23;80.89
62725;BME280;49026;52.600;4.694;2023-03-04T09:37:57;102673.00;;;7.32;80.11
62725;BME280;49026;52.600;4.694;2023-03-04T09:40:27;102690.41;;;7.27;80.60
62725;BME280;49026;52.600;4.694;2023-03-04T09:43:02;102681.66;;;7.14;80.90
62725;BME280;49026;52.600;4.694;2023-03-04T09:45:42;102690.34;;;7.10;81.19
62725;BME280;49026;52.600;4.694;2023-03-04T09:48:15;102681.66;;;7.17;81.24
62725;BME280;49026;52.600;4.694;2023-03-04T09:51:13;102675.53;;;7.20;80.97
62725;BME280;49026;52.600;4.694;2023-03-04T09:53:55;102677.31;;;7.21;81.12
62725;BME280;49026;52.600;4.694;2023-03-04T09:56:24;102676.53;;;7.57;79.54
62725;BME280;49026;52.600;4.694;2023-03-04T10:01:55;102666.97;;;8.29;79.31
62725;BME280;49026;52.600;4.694;2023-03-04T10:04:40;102677.44;;;8.10;80.02
62725;BME280;49026;52.600;4.694;2023-03-04T10:07:18;102666.97;;;7.79;81.08
62725;BME280;49026;52.600;4.694;2023-03-04T10:09:53;102667.81;;;7.68;81.09
62725;BME280;49026;52.600;4.694;2023-03-04T10:12:22;102665.19;;;7.61;81.18
62725;BME280;49026;52.600;4.694;2023-03-04T10:20:01;102667.69;;;7.11;81.05
62725;BME280;49026;52.600;4.694;2023-03-04T10:25:29;102675.22;;;6.49;81.92
62725;BME280;49026;52.600;4.694;2023-03-04T10:28:00;102668.22;;;6.42;81.27
62725;BME280;49026;52.600;4.694;2023-03-04T10:33:31;102681.25;;;6.37;81.71
62725;BME280;49026;52.600;4.694;2023-03-04T10:38:24;102676.28;;;6.79;82.38
62725;BME280;49026;52.600;4.694;2023-03-04T10:40:52;102673.81;;;7.19;80.53
62725;BME280;49026;52.600;4.694;2023-03-04T10:43:20;102669.56;;;7.79;80.30
62725;BME280;49026;52.600;4.694;2023-03-04T10:45:46;102678.31;;;7.78;78.50
62725;BME280;49026;52.600;4.694;2023-03-04T10:48:42;102675.63;;;7.43;79.51
62725;BME280;49026;52.600;4.694;2023-03-04T10:51:19;102664.28;;;7.41;80.46
62725;BME280;49026;52.600;4.694;2023-03-04T10:53:48;102672.16;;;7.47;81.37
62725;BME280;49026;52.600;4.694;2023-03-04T10:56:35;102673.91;;;7.53;80.53
62725;BME280;49026;52.600;4.694;2023-03-04T11:01:59;102668.59;;;7.27;81.58
62725;BME280;49026;52.600;4.694;2023-03-04T11:04:27;102672.03;;;7.15;81.70
62725;BME280;49026;52.600;4.694;2023-03-04T11:06:56;102674.66;;;7.09;81.41
62725;BME280;49026;52.600;4.694;2023-03-04T11:09:27;102670.44;;;7.54;81.96
62725;BME280;49026;52.600;4.694;2023-03-04T11:11:54;102662.56;;;8.51;81.52
62725;BME280;49026;52.600;4.694;2023-03-04T11:14:26;102670.16;;;9.23;80.09
62725;BME280;49026;52.600;4.694;2023-03-04T11:19:47;102666.06;;;8.64;78.34
62725;BME280;49026;52.600;4.694;2023-03-04T11:22:17;102661.72;;;8.18;80.55
62725;BME280;49026;52.600;4.694;2023-03-04T11:24:48;102666.09;;;7.93;81.70
62725;BME280;49026;52.600;4.694;2023-03-04T11:30:26;102670.41;;;7.63;81.34
62725;BME280;49026;52.600;4.694;2023-03-04T11:32:56;102670.44;;;7.72;81.26
62725;BME280;49026;52.600;4.694;2023-03-04T11:35:47;102664.38;;;7.92;80.27
62725;BME280;49026;52.600;4.694;2023-03-04T11:38:20;102664.34;;;7.83;79.90
62725;BME280;49026;52.600;4.694;2023-03-04T11:40:51;102659.09;;;7.79;80.36
62725;BME280;49026;52.600;4.694;2023-03-04T11:43:24;102656.50;;;7.83;80.29
62725;BME280;49026;52.600;4.694;2023-03-04T12:06:20;102647.72;;;8.27;73.83
62725;BME280;49026;52.600;4.694;2023-03-04T12:17:22;102634.63;;;8.33;78.78
62725;BME280;49026;52.600;4.694;2023-03-04T12:20:17;102627.63;;;8.37;78.46
62725;BME280;49026;52.600;4.694;2023-03-04T12:23:04;102624.16;;;8.33;79.19
62725;BME280;49026;52.600;4.694;2023-03-04T12:25:41;102628.53;;;8.22;78.50
62725;BME280;49026;52.600;4.694;2023-03-04T12:30:58;102623.31;;;8.11;80.05
62725;BME280;49026;52.600;4.694;2023-03-04T12:36:09;102617.19;;;8.30;78.55
62725;BME280;49026;52.600;4.694;2023-03-04T12:39:06;102614.53;;;8.38;73.01
62725;BME280;49026;52.600;4.694;2023-03-04T12:41:40;102613.72;;;8.22;72.34
62725;BME280;49026;52.600;4.694;2023-03-04T12:44:14;102618.94;;;8.11;74.87
62725;BME280;49026;52.600;4.694;2023-03-04T12:47:22;102611.09;;;8.11;77.23
62725;BME280;49026;52.600;4.694;2023-03-04T12:53:00;102603.28;;;8.02;74.46
62725;BME280;49026;52.600;4.694;2023-03-04T12:55:36;102602.41;;;7.91;75.13
62725;BME280;49026;52.600;4.694;2023-03-04T12:58:02;102600.66;;;7.90;75.97
62725;BME280;49026;52.600;4.694;2023-03-04T13:03:23;102588.44;;;8.06;79.07
62725;BME280;49026;52.600;4.694;2023-03-04T13:06:05;102587.53;;;8.11;76.27
62725;BME280;49026;52.600;4.694;2023-03-04T13:08:49;102583.19;;;8.07;77.93
62725;BME280;49026;52.600;4.694;2023-03-04T13:11:32;102584.91;;;8.07;78.90
62725;BME280;49026;52.600;4.694;2023-03-04T13:14:03;102584.94;;;8.05;79.15
62725;BME280;49026;52.600;4.694;2023-03-04T13:19:02;102578.81;;;8.17;78.29
62725;BME280;49026;52.600;4.694;2023-03-04T13:21:29;102580.53;;;8.18;79.22
62725;BME280;49026;52.600;4.694;2023-03-04T13:23:57;102574.44;;;8.08;78.50
62725;BME280;49026;52.600;4.694;2023-03-04T13:32:10;102564.91;;;7.72;77.07
62725;BME280;49026;52.600;4.694;2023-03-04T13:34:47;102573.63;;;7.75;74.82
62725;BME280;49026;52.600;4.694;2023-03-04T13:37:35;102574.50;;;7.81;77.29
62725;BME280;49026;52.600;4.694;2023-03-04T13:42:47;102573.59;;;7.85;75.18
62725;BME280;49026;52.600;4.694;2023-03-04T13:47:55;102563.97;;;8.24;77.55
62725;BME280;49026;52.600;4.694;2023-03-04T13:50:33;102555.19;;;8.28;76.82
62725;BME280;49026;52.600;4.694;2023-03-04T13:58:42;102566.66;;;7.64;77.13
62725;BME280;49026;52.600;4.694;2023-03-04T14:04:16;102578.00;;;7.67;77.09
62725;BME280;49026;52.600;4.694;2023-03-04T14:06:43;102571.00;;;7.63;78.28
62725;BME280;49026;52.600;4.694;2023-03-04T14:09:14;102562.28;;;7.61;78.39
62725;BME280;49026;52.600;4.694;2023-03-04T14:11:40;102559.69;;;7.70;77.81
62725;BME280;49026;52.600;4.694;2023-03-04T14:14:11;102546.56;;;7.92;77.57
62725;BME280;49026;52.600;4.694;2023-03-04T14:16:43;102554.34;;;8.13;77.65
62725;BME280;49026;52.600;4.694;2023-03-04T14:19:15;102551.72;;;8.20;76.51
62725;BME280;49026;52.600;4.694;2023-03-04T14:21:46;102552.59;;;8.20;77.35
62725;BME280;49026;52.600;4.694;2023-03-04T14:24:14;102545.56;;;8.36;75.39
62725;BME280;49026;52.600;4.694;2023-03-04T14:26:40;102540.06;;;8.95;76.19
62725;BME280;49026;52.600;4.694;2023-03-04T14:29:23;102536.47;;;9.09;74.87
62725;BME280;49026;52.600;4.694;2023-03-04T14:31:50;102541.97;;;8.66;70.86
62725;BME280;49026;52.600;4.694;2023-03-04T14:34:30;102537.72;;;8.28;73.74
62725;BME280;49026;52.600;4.694;2023-03-04T14:36:59;102522.97;;;8.01;75.12
62725;BME280;49026;52.600;4.694;2023-03-04T14:39:29;102530.88;;;7.76;75.22